Terminal Aerodrome Forecast
Issued by NWS Wilmington, OH

Current Version | Previous Version | Graphics & Text | Print | Product List | Glossary On
Versions: 1 2 3 4 5 6 7 8 9 10 11 12 13 14 15 16 17 18 19 20 21 22 23 24 25 26 27 28 29
000
FTUS41 KILN 300200 AAA
TAFCMH
TAF AMD
KCMH 300236Z 3003/3024 31013KT 5SM -SN BR FEW008 BKN013 OVC023
     FM301100 31015G23KT P6SM OVC022
     FM301600 32014G22KT P6SM BKN025
     FM302000 34011KT P6SM SCT025=

USA.gov is the U.S. government's official web portal to all federal, state and local government web resources and services.